Terminal Aerodrome Forecast
Issued by NWS Boise, ID

Home | Current Version | Previous Version | Text Only | Print | Product List | Glossary On
Versions: 1 2 3 4 5 6 7 8 9 10 11 12 13 14 15 16 17 18 19 20 21 22 23 24 25 26 27 28 29 30
000
FTUS45 KBOI 272335
TAFBNO
TAF
KBNO 272335Z 2800/2824 VRB04KT P6SM VCSH OVC050
     FM280300 22005KT 3SM -SN BR SCT015 OVC025
     FM281200 24010KT P6SM VCSH SCT025 OVC050
     FM281800 27012G20KT P6SM SCT050=

USA.gov is the U.S. government's official web portal to all federal, state and local government web resources and services.